Time;durP1;ratioP1;P1;durP2;ratioP2;P2;SDS_P1;SDS_P2;PMS_P1;PMS_P2;Temp;Humidity;BMP_temperature;BMP_pressure;BME280_temperature;BME280_humidity;BME280_pressure;Samples;Min_cycle;Max_cycle;Signal;HPM_P1;HPM_P2
2021/06/12 00:02:10;;;;;;;20.87;16.80;;;;;;;21.43;60.87;98133.78;8403239;28;20203;-64
2021/06/12 00:06:12;;;;;;;14.70;13.10;;;;;;;21.34;60.70;98133.75;8383250;28;20231;-63
2021/06/12 00:10:18;;;;;;;13.27;10.90;;;;;;;21.34;60.64;98133.75;8383153;28;20239;-64
2021/06/12 00:14:22;;;;;;;13.43;9.77;;;;;;;21.26;60.69;98132.59;8383176;28;20222;-64
2021/06/12 00:18:25;;;;;;;12.10;9.87;;;;;;;21.17;60.91;98132.56;8383080;28;20208;-63
2021/06/12 00:22:28;;;;;;;11.37;10.27;;;;;;;21.14;61.02;98132.84;8382714;28;20500;-64
2021/06/12 00:26:30;;;;;;;10.97;9.83;;;;;;;21.14;61.08;98136.31;8382829;28;20216;-64
2021/06/12 00:30:34;;;;;;;10.80;9.63;;;;;;;21.15;61.03;98134.50;8381277;28;20525;-64
2021/06/12 00:34:36;;;;;;;12.53;10.17;;;;;;;21.08;60.74;98142.91;8382336;28;20232;-64
2021/06/12 00:38:38;;;;;;;14.60;10.07;;;;;;;21.05;60.70;98131.81;8381707;28;20207;-64
2021/06/12 00:42:41;;;;;;;11.00;9.90;;;;;;;21.15;59.69;98137.13;8382544;28;20215;-64
2021/06/12 00:46:45;;;;;;;11.23;9.87;;;;;;;21.08;60.25;98137.66;8382299;28;20205;-64
2021/06/12 00:50:47;;;;;;;13.00;10.50;;;;;;;21.03;60.31;98142.47;8381941;28;20277;-64
2021/06/12 00:54:50;;;;;;;13.20;9.53;;;;;;;20.97;60.67;98132.47;8381864;28;20228;-64
2021/06/12 00:58:52;;;;;;;12.00;10.67;;;;;;;20.89;60.48;98134.91;8382176;28;20540;-64
2021/06/12 01:03:16;;;;;;;11.83;10.63;;;;;;;20.85;60.66;98121.16;8391861;28;20203;-64
2021/06/12 01:07:18;;;;;;;11.70;10.50;;;;;;;20.78;60.96;98135.81;8414545;28;20500;-64
2021/06/12 01:11:20;;;;;;;11.50;10.30;;;;;;;20.87;60.80;98127.13;8415200;28;20230;-64
2021/06/12 01:15:24;;;;;;;13.83;10.03;;;;;;;20.86;60.58;98125.47;8414703;28;20236;-64
2021/06/12 01:19:58;;;;;;;11.73;10.33;;;;;;;20.76;60.78;98124.56;8414863;28;20200;-64
2021/06/12 01:24:36;;;;;;;11.97;10.23;;;;;;;20.77;61.13;98117.50;8414999;28;20210;-64
2021/06/12 01:28:51;;;;;;;13.50;11.57;;;;;;;20.65;61.04;98112.31;8414504;28;20416;-64
2021/06/12 01:32:58;;;;;;;11.60;10.60;;;;;;;20.68;61.01;98116.50;8364092;28;20495;-63
2021/06/12 01:37:01;;;;;;;12.30;10.47;;;;;;;20.67;61.05;98099.03;8363994;28;20414;-63
2021/06/12 01:41:07;;;;;;;13.10;11.13;;;;;;;20.57;61.29;98098.94;8363870;28;20491;-63
2021/06/12 01:45:10;;;;;;;15.80;10.07;;;;;;;20.65;61.44;98107.03;8351077;28;20469;-63
2021/06/12 01:49:15;;;;;;;11.10;10.13;;;;;;;20.60;62.00;98109.25;8349764;28;20201;-63
2021/06/12 01:53:19;;;;;;;11.57;10.50;;;;;;;20.54;61.76;98114.97;8353969;28;20208;-63
2021/06/12 01:57:21;;;;;;;11.50;9.60;;;;;;;20.56;61.31;98120.97;8354141;28;20202;-63
2021/06/12 02:01:25;;;;;;;11.10;10.00;;;;;;;20.44;61.38;98119.31;8353675;28;20201;-63
2021/06/12 02:05:30;;;;;;;13.00;9.80;;;;;;;20.43;60.98;98117.66;8385718;28;20397;-62
2021/06/12 02:09:33;;;;;;;10.27;9.37;;;;;;;20.44;61.13;98119.31;8387167;28;20231;-63
2021/06/12 02:13:36;;;;;;;11.67;10.37;;;;;;;20.39;60.97;98118.84;8386130;28;20223;-62
2021/06/12 02:17:39;;;;;;;11.50;10.27;;;;;;;20.29;61.48;98111.72;8386468;28;20200;-63
2021/06/12 02:21:44;;;;;;;10.97;9.83;;;;;;;20.33;61.55;98114.94;8386132;28;20214;-63
2021/06/12 02:25:47;;;;;;;12.10;11.00;;;;;;;20.27;62.21;98111.00;8386174;28;20362;-62
2021/06/12 02:29:51;;;;;;;12.07;10.83;;;;;;;20.34;62.03;98118.41;8386159;28;20331;-63
2021/06/12 02:33:54;;;;;;;11.40;10.47;;;;;;;20.29;62.59;98116.16;8385706;28;20235;-62
2021/06/12 02:37:58;;;;;;;13.07;11.73;;;;;;;20.14;63.04;98115.59;8385861;28;20219;-62
2021/06/12 02:42:01;;;;;;;12.57;11.37;;;;;;;20.24;62.49;98111.28;8385639;28;20203;-62
2021/06/12 02:46:04;;;;;;;13.20;11.90;;;;;;;20.16;62.73;98112.84;8385714;28;20498;-63
2021/06/12 02:50:08;;;;;;;12.77;11.53;;;;;;;20.19;62.64;98109.97;8385311;28;20282;-62
2021/06/12 02:54:12;;;;;;;12.50;11.20;;;;;;;20.21;62.19;98102.81;8385287;28;20236;-63
2021/06/12 02:58:16;;;;;;;15.50;11.10;;;;;;;20.16;62.66;98110.22;8384996;28;20199;-63
2021/06/12 03:02:19;;;;;;;14.63;11.47;;;;;;;20.19;62.57;98109.97;8386160;28;20199;-62
2021/06/12 03:06:24;;;;;;;15.70;12.07;;;;;;;20.05;63.03;98103.22;8418224;28;20308;-63
2021/06/12 03:10:30;;;;;;;13.57;12.07;;;;;;;19.89;63.32;98114.94;8418235;28;20419;-63
2021/06/12 03:14:33;;;;;;;13.90;11.90;;;;;;;19.71;63.81;98111.97;8417857;28;20227;-62
2021/06/12 03:18:36;;;;;;;13.57;11.87;;;;;;;19.96;63.10;98115.31;8417516;28;20198;-62
2021/06/12 03:22:39;;;;;;;13.33;11.90;;;;;;;19.90;62.92;98110.56;8417374;28;20206;-62
2021/06/12 03:26:43;;;;;;;14.20;12.90;;;;;;;19.68;63.65;98106.13;8417246;28;20210;-62
2021/06/12 03:30:46;;;;;;;18.67;14.20;;;;;;;19.63;63.69;98108.28;8417200;28;20395;-63
2021/06/12 03:34:48;;;;;;;15.50;14.23;;;;;;;19.37;64.76;98107.72;8417023;28;20238;-62
2021/06/12 03:38:51;;;;;;;13.73;12.53;;;;;;;19.62;63.82;98115.34;8417167;28;20438;-62
2021/06/12 03:42:55;;;;;;;16.40;12.10;;;;;;;19.79;63.75;98114.03;8417072;28;20438;-63
2021/06/12 03:46:59;;;;;;;13.23;11.93;;;;;;;19.83;63.37;98115.44;8416811;28;20207;-62
2021/06/12 03:51:01;;;;;;;12.90;11.60;;;;;;;19.78;63.48;98111.50;8416714;28;20200;-62
2021/06/12 03:55:05;;;;;;;14.20;12.90;;;;;;;19.89;63.26;98129.91;8416475;28;20231;-63
2021/06/12 03:59:10;;;;;;;12.73;11.43;;;;;;;19.97;62.95;98132.75;8416003;28;20218;-62
2021/06/12 04:03:13;;;;;;;13.13;11.80;;;;;;;19.96;63.23;98131.06;8415712;28;20195;-62
2021/06/12 04:07:17;;;;;;;14.03;12.73;;;;;;;19.98;63.40;98131.78;8415996;28;20412;-63
2021/06/12 04:11:19;;;;;;;12.87;11.60;;;;;;;19.98;63.37;98131.78;8416089;28;20227;-62
2021/06/12 04:15:23;;;;;;;12.47;11.37;;;;;;;20.09;62.98;98144.06;8415788;28;20223;-62
2021/06/12 04:19:25;;;;;;;13.93;12.47;;;;;;;19.99;63.28;98144.00;8416243;28;20199;-62
2021/06/12 04:23:28;;;;;;;16.87;12.57;;;;;;;20.11;63.04;98142.97;8415517;28;20234;-62
2021/06/12 04:27:30;;;;;;;15.73;14.07;;;;;;;20.17;63.08;98136.41;8415435;28;20229;-62
2021/06/12 04:31:33;;;;;;;15.20;13.70;;;;;;;19.95;63.94;98132.03;8415458;28;20203;-62
2021/06/12 04:35:36;;;;;;;14.53;13.03;;;;;;;20.19;63.10;98138.91;8415268;28;20514;-62
2021/06/12 04:39:38;;;;;;;14.60;13.17;;;;;;;20.09;63.51;98144.91;8415072;28;20205;-62
2021/06/12 04:43:41;;;;;;;14.67;13.23;;;;;;;20.08;63.71;98143.22;8415287;28;20199;-62
2021/06/12 04:47:44;;;;;;;16.03;14.40;;;;;;;20.29;63.16;98142.44;8382035;28;20204;-62
2021/06/12 04:51:46;;;;;;;16.80;15.10;;;;;;;20.03;64.51;98147.19;8351619;28;20272;-63
2021/06/12 04:55:49;;;;;;;16.93;15.27;;;;;;;19.86;64.81;98141.50;8381569;28;20228;-63
2021/06/12 04:59:51;;;;;;;15.07;13.77;;;;;;;20.04;64.00;98138.34;8377222;28;20495;-63
2021/06/12 05:03:55;;;;;;;14.80;13.40;;;;;;;20.30;63.18;98136.25;8367171;28;20242;-62
2021/06/12 05:07:58;;;;;;;15.97;14.03;;;;;;;20.39;62.86;98138.13;8364426;28;20220;-63
2021/06/12 05:12:00;;;;;;;17.37;14.23;;;;;;;20.50;62.13;98137.22;8364464;28;20192;-63
2021/06/12 05:16:03;;;;;;;15.00;13.50;;;;;;;20.60;61.84;98140.81;8364186;28;20230;-63
2021/06/12 05:20:10;;;;;;;15.47;13.83;;;;;;;20.68;61.98;98129.66;8364330;28;20212;-63
2021/06/12 05:24:17;;;;;;;15.20;13.50;;;;;;;20.85;60.89;98136.13;8365848;28;20490;-63
2021/06/12 05:28:20;;;;;;;16.17;14.37;;;;;;;20.70;61.69;98136.44;8371157;28;20195;-63
2021/06/12 05:32:22;;;;;;;16.40;14.70;;;;;;;20.88;61.53;98135.88;8380221;28;20199;-62
2021/06/12 05:36:26;;;;;;;15.57;13.83;;;;;;;20.95;61.11;98130.94;8387560;28;20537;-62
2021/06/12 05:40:28;;;;;;;16.27;14.63;;;;;;;20.92;61.68;98142.53;8387600;28;20200;-63
2021/06/12 05:44:30;;;;;;;13.67;12.27;;;;;;;21.09;60.14;98141.13;8387333;28;20208;-63
2021/06/12 05:48:33;;;;;;;14.00;12.60;;;;;;;21.47;60.60;98137.84;8387442;28;20199;-62
2021/06/12 05:52:36;;;;;;;13.83;12.47;;;;;;;21.54;59.75;98126.81;8386969;28;20211;-62
2021/06/12 05:56:39;;;;;;;13.57;12.23;;;;;;;21.57;59.69;98130.00;8376751;28;20220;-63
2021/06/12 06:00:41;;;;;;;12.90;11.23;;;;;;;21.81;59.51;98142.81;8359564;28;20196;-63
2021/06/12 06:04:44;;;;;;;13.80;11.93;;;;;;;21.73;58.99;98140.03;8386242;28;20226;-62
2021/06/12 06:08:47;;;;;;;13.37;10.17;;;;;;;21.79;58.37;98142.13;8385885;28;20242;-63
2021/06/12 06:12:49;;;;;;;9.87;6.87;;;;;;;22.51;57.90;98150.72;8386184;28;20485;-63
2021/06/12 06:16:52;;;;;;;19.73;9.83;;;;;;;22.71;55.86;98140.16;8386409;28;20296;-63
2021/06/12 06:20:54;;;;;;;9.73;8.80;;;;;;;22.78;56.14;98136.81;8386208;28;20202;-63
2021/06/12 06:24:58;;;;;;;11.87;9.20;;;;;;;22.91;55.24;98144.44;8386144;28;20211;-63
2021/06/12 06:29:01;;;;;;;10.10;8.90;;;;;;;23.28;55.19;98137.56;8386181;28;20214;-62
2021/06/12 06:33:03;;;;;;;7.43;6.60;;;;;;;23.13;54.69;98138.06;8386115;28;20220;-62
2021/06/12 06:37:06;;;;;;;8.67;6.97;;;;;;;23.07;55.28;98141.25;8384377;28;20233;-63
2021/06/12 06:41:10;;;;;;;7.77;6.63;;;;;;;23.04;56.38;98141.53;8385616;28;20207;-63
2021/06/12 06:45:13;;;;;;;11.53;6.80;;;;;;;23.28;55.92;98134.94;8385442;28;20213;-63
2021/06/12 06:49:16;;;;;;;11.23;7.20;;;;;;;23.69;54.06;98141.56;8385483;28;20362;-63
2021/06/12 06:53:18;;;;;;;7.37;6.50;;;;;;;23.66;53.68;98143.69;8385744;28;20202;-63
2021/06/12 06:57:22;;;;;;;6.80;5.83;;;;;;;23.43;53.83;98126.38;8384993;28;20294;-63
2021/06/12 07:01:25;;;;;;;9.97;6.03;;;;;;;23.36;54.04;98132.38;8385046;28;20364;-63
2021/06/12 07:05:28;;;;;;;8.17;5.80;;;;;;;23.53;54.49;98136.94;8413038;28;20231;-63
2021/06/12 07:09:30;;;;;;;6.70;5.90;;;;;;;24.16;53.88;98132.69;8418128;28;20238;-63
2021/06/12 07:13:35;;;;;;;6.20;5.60;;;;;;;24.37;54.37;98141.19;8417549;28;20202;-63
2021/06/12 07:17:37;;;;;;;6.53;5.57;;;;;;;24.25;53.43;98138.91;8417274;28;20230;-63
2021/06/12 07:21:40;;;;;;;8.93;5.97;;;;;;;24.11;51.93;98141.09;8417569;28;20202;-63
2021/06/12 07:25:42;;;;;;;5.70;5.10;;;;;;;24.67;51.15;98141.78;8417110;28;20214;-63
2021/06/12 07:29:46;;;;;;;6.43;4.90;;;;;;;24.75;52.06;98149.81;8417513;28;20370;-63
2021/06/12 07:33:49;;;;;;;6.83;5.13;;;;;;;24.59;51.33;98139.06;8417380;28;20216;-63
2021/06/12 07:37:52;;;;;;;6.70;6.00;;;;;;;24.87;49.74;98131.84;8416727;28;20230;-63
2021/06/12 07:41:54;;;;;;;9.13;5.97;;;;;;;25.45;49.38;98133.03;8416829;28;20207;-63
2021/06/12 07:45:59;;;;;;;10.67;5.70;;;;;;;25.64;48.78;98131.97;8416280;28;20210;-63
2021/06/12 07:50:01;;;;;;;8.10;5.97;;;;;;;25.74;49.65;98131.81;8395594;28;20361;-63
2021/06/12 07:54:04;;;;;;;9.23;6.50;;;;;;;25.85;48.69;98134.19;8383248;28;20518;-64
2021/06/12 07:58:09;;;;;;;7.97;5.10;;;;;;;25.83;48.22;98130.88;8382983;28;20228;-64
2021/06/12 08:02:13;;;;;;;9.97;5.67;;;;;;;25.85;49.40;98136.84;8384364;28;20395;-64
2021/06/12 08:06:16;;;;;;;8.60;5.40;;;;;;;26.06;47.68;98138.25;8415810;28;20219;-64
2021/06/12 08:10:19;;;;;;;8.87;5.13;;;;;;;26.28;47.05;98132.34;8416265;28;20405;-64
2021/06/12 08:14:22;;;;;;;5.47;4.90;;;;;;;26.16;48.33;98132.81;8415753;28;20208;-64
2021/06/12 08:18:25;;;;;;;6.57;4.80;;;;;;;26.29;47.72;98136.66;8369848;28;20226;-64
2021/06/12 08:22:28;;;;;;;5.20;4.70;;;;;;;26.59;46.78;98130.88;8365519;28;20480;-64
2021/06/12 08:26:31;;;;;;;7.53;5.33;;;;;;;26.72;46.77;98139.19;8365264;28;20200;-64
2021/06/12 08:30:35;;;;;;;6.63;5.00;;;;;;;26.80;46.62;98138.34;8365020;28;20199;-64
2021/06/12 08:34:39;;;;;;;6.40;4.23;;;;;;;26.55;46.35;98140.97;8367001;28;20194;-64
2021/06/12 08:38:41;;;;;;;7.93;4.40;;;;;;;26.53;44.60;98146.47;8381884;28;20208;-64
2021/06/12 08:42:48;;;;;;;8.57;3.67;;;;;;;26.78;43.51;98145.66;8381445;28;20207;-64
2021/06/12 08:46:50;;;;;;;7.10;3.20;;;;;;;27.23;43.60;98144.28;8373546;28;20192;-64
2021/06/12 08:50:55;;;;;;;4.47;3.50;;;;;;;27.46;41.70;98150.56;8382252;28;20209;-64
2021/06/12 08:54:58;;;;;;;8.07;4.07;;;;;;;27.60;41.51;98151.66;8381501;28;20204;-64
2021/06/12 08:59:01;;;;;;;8.20;3.70;;;;;;;27.90;41.63;98146.59;8381390;28;20276;-64
2021/06/12 09:03:13;;;;;;;5.87;3.93;;;;;;;27.91;40.05;98152.72;8390224;28;20241;-64
2021/06/12 09:07:22;;;;;;;7.20;3.70;;;;;;;27.96;40.06;98148.53;8415001;28;20551;-64
2021/06/12 09:11:25;;;;;;;4.03;3.30;;;;;;;27.80;41.07;98146.78;8414936;28;20416;-64
2021/06/12 09:15:28;;;;;;;5.67;3.20;;;;;;;28.33;39.75;98139.03;8414484;28;20234;-64
2021/06/12 09:19:39;;;;;;;7.07;3.50;;;;;;;28.32;39.27;98137.34;8414960;28;20203;-64
2021/06/12 09:23:44;;;;;;;4.80;3.10;;;;;;;28.48;39.95;98133.72;8414565;28;20200;-64
2021/06/12 09:27:55;;;;;;;5.63;2.87;;;;;;;28.46;38.31;98125.09;8414689;28;20204;-64
2021/06/12 09:31:59;;;;;;;4.33;2.80;;;;;;;28.82;39.92;98127.16;8414777;28;20200;-64
2021/06/12 09:36:07;;;;;;;4.73;3.40;;;;;;;28.76;37.84;98114.56;8414556;28;20255;-64
2021/06/12 09:40:13;;;;;;;3.73;2.93;;;;;;;28.78;38.22;98112.53;8414462;28;20211;-64
2021/06/12 09:44:33;;;;;;;4.40;2.73;;;;;;;28.65;37.91;98118.47;8414336;28;20200;-64
2021/06/12 09:48:36;;;;;;;4.93;2.70;;;;;;;29.06;39.44;98110.09;8414270;28;20206;-64
2021/06/12 09:52:43;;;;;;;4.77;2.50;;;;;;;29.11;36.66;98114.88;8414278;28;20212;-64
2021/06/12 09:56:59;;;;;;;3.83;2.37;;;;;;;28.66;36.20;98128.97;8413902;28;20225;-64
2021/06/12 10:01:07;;;;;;;3.93;2.60;;;;;;;28.43;36.53;98131.59;8379446;28;20194;-64
2021/06/12 10:05:12;;;;;;;3.87;2.50;;;;;;;28.84;37.08;98135.78;8370171;28;20204;-64
2021/06/12 10:09:15;;;;;;;5.40;2.70;;;;;;;28.68;37.13;98136.78;8370522;28;20226;-64
2021/06/12 10:13:19;;;;;;;5.87;2.90;;;;;;;28.75;37.23;98131.53;8380680;28;20206;-63
2021/06/12 10:17:22;;;;;;;7.33;3.30;;;;;;;28.87;37.46;98135.44;8377680;28;20233;-64
2021/06/12 10:21:25;;;;;;;4.40;2.70;;;;;;;29.08;37.34;98123.25;8386495;28;20225;-63
2021/06/12 10:25:28;;;;;;;4.23;2.57;;;;;;;29.53;37.21;98113.44;8386393;28;20213;-63
2021/06/12 10:29:32;;;;;;;4.73;2.87;;;;;;;29.62;36.93;98112.31;8386440;28;20396;-63
2021/06/12 10:33:35;;;;;;;5.00;2.83;;;;;;;29.18;37.42;98115.84;8382185;28;20234;-63
2021/06/12 10:37:58;;;;;;;3.83;2.47;;;;;;;29.53;38.17;98103.59;8352765;28;20230;-64
2021/06/12 10:42:25;;;;;;;3.90;2.37;;;;;;;29.35;37.82;98106.63;8352791;28;20238;-63
2021/06/12 10:46:30;;;;;;;5.00;2.60;;;;;;;29.60;37.45;98104.50;8356168;28;20218;-63
2021/06/12 10:50:46;;;;;;;4.50;2.77;;;;;;;29.27;37.67;98104.06;8385479;28;20405;-63
2021/06/12 10:54:49;;;;;;;4.83;2.47;;;;;;;28.81;38.82;98110.34;8385738;28;20278;-63
2021/06/12 10:58:51;;;;;;;5.27;2.80;;;;;;;28.85;38.64;98116.16;8385201;28;20230;-63
2021/06/12 11:02:55;;;;;;;6.10;2.60;;;;;;;29.21;39.59;98094.16;8392437;28;20339;-63
2021/06/12 11:07:00;;;;;;;7.03;2.73;;;;;;;29.72;38.80;98094.19;8418542;28;20519;-63
2021/06/12 11:11:33;;;;;;;6.73;2.93;;;;;;;30.16;37.71;98077.22;8417709;28;20242;-68
2021/06/12 11:15:35;;;;;;;5.13;3.10;;;;;;;30.29;36.39;98071.19;8417739;28;20209;-66
2021/06/12 11:19:42;;;;;;;4.80;2.50;;;;;;;30.08;36.20;98071.19;8417588;28;20212;-66
2021/06/12 11:23:46;;;;;;;4.90;2.60;;;;;;;29.95;37.32;98082.53;8407169;28;20207;-68
2021/06/12 11:27:49;;;;;;;9.87;2.90;;;;;;;30.00;37.85;98090.81;8384046;28;20207;-66
2021/06/12 11:31:52;;;;;;;3.53;2.63;;;;;;;29.52;38.28;98085.94;8383983;28;20211;-66
2021/06/12 11:35:56;;;;;;;3.47;3.00;;;;;;;29.36;38.97;98086.97;8383493;28;20230;-67
2021/06/12 11:40:02;;;;;;;10.70;2.80;;;;;;;29.44;37.58;98083.38;8377377;28;20213;-66
2021/06/12 11:44:05;;;;;;;6.80;2.70;;;;;;;29.10;38.14;98086.56;8366672;28;20210;-66
2021/06/12 11:48:18;;;;;;;6.47;2.20;;;;;;;29.34;36.90;98075.66;8374993;28;20195;-65
2021/06/12 11:52:35;;;;;;;5.03;2.30;;;;;;;29.00;36.66;98078.84;8383305;28;20202;-63
2021/06/12 11:56:39;;;;;;;4.70;2.50;;;;;;;29.36;36.91;98073.63;8383235;28;20227;-63
2021/06/12 12:00:46;;;;;;;4.37;2.70;;;;;;;29.26;37.56;98064.25;8383310;28;20214;-64
2021/06/12 12:04:51;;;;;;;4.03;2.50;;;;;;;29.18;37.20;98065.19;8406070;28;20210;-63
2021/06/12 12:08:55;;;;;;;4.50;2.40;;;;;;;29.09;38.20;98053.72;8416675;28;20230;-63
2021/06/12 12:12:57;;;;;;;4.33;2.20;;;;;;;29.22;38.01;98045.13;8416396;28;20209;-63
2021/06/12 12:17:01;;;;;;;5.07;2.60;;;;;;;28.87;37.02;98049.34;8416014;28;20230;-63
2021/06/12 12:21:04;;;;;;;5.93;2.27;;;;;;;28.74;37.34;98047.31;8416082;28;20496;-63
2021/06/12 12:25:09;;;;;;;3.47;2.23;;;;;;;29.35;37.08;98047.16;8384584;28;20218;-63
2021/06/12 12:29:15;;;;;;;4.00;2.47;;;;;;;29.44;37.82;98048.69;8365323;28;20516;-63
2021/06/12 12:33:18;;;;;;;4.50;2.33;;;;;;;29.07;38.17;98052.28;8364157;28;20195;-63
2021/06/12 12:37:23;;;;;;;5.80;2.27;;;;;;;29.22;36.19;98042.47;8364985;28;20231;-63
2021/06/12 12:41:28;;;;;;;4.53;1.97;;;;;;;29.14;37.07;98042.56;8365459;28;20214;-63
2021/06/12 12:45:30;;;;;;;4.07;2.17;;;;;;;29.26;38.20;98043.75;8365533;28;20233;-64
2021/06/12 12:49:33;;;;;;;7.43;2.43;;;;;;;28.91;37.99;98034.63;8382079;28;20206;-63
2021/06/12 12:53:39;;;;;;;4.77;2.00;;;;;;;28.73;37.88;98033.16;8381550;28;20346;-64
2021/06/12 12:57:45;;;;;;;4.47;2.47;;;;;;;28.60;38.15;98030.28;8348857;28;20425;-64
2021/06/12 13:01:50;;;;;;;4.90;2.10;;;;;;;28.97;37.43;98028.56;8348865;28;20203;-63
2021/06/12 13:05:52;;;;;;;3.60;2.27;;;;;;;28.91;37.81;98027.47;8411873;28;20228;-64
2021/06/12 13:10:08;;;;;;;5.87;2.00;;;;;;;28.66;37.31;98025.06;8414648;28;20513;-64
2021/06/12 13:14:22;;;;;;;5.13;2.40;;;;;;;28.82;36.40;98023.22;8414771;28;20200;-64
2021/06/12 13:18:31;;;;;;;7.83;4.67;;;;;;;28.92;35.36;98013.13;8414764;28;20235;-64
2021/06/12 13:22:35;;;;;;;2.83;1.70;;;;;;;28.54;35.02;98015.88;8414820;28;20224;-64
2021/06/12 13:26:41;;;;;;;4.63;2.70;;;;;;;28.92;35.61;98013.13;8401014;28;20210;-64
2021/06/12 13:30:47;;;;;;;3.97;2.60;;;;;;;28.48;37.34;98029.84;8381666;28;20197;-64
2021/06/12 13:34:49;;;;;;;2.07;1.70;;;;;;;28.96;36.88;98022.41;8381640;28;20229;-65
2021/06/12 13:38:53;;;;;;;3.23;1.83;;;;;;;29.03;37.52;98014.50;8381268;28;20230;-64
2021/06/12 13:42:56;;;;;;;3.10;2.07;;;;;;;29.26;35.42;98019.75;8382067;28;20220;-64
2021/06/12 13:46:59;;;;;;;13.23;9.07;;;;;;;29.24;35.56;98019.09;8385275;28;20213;-65
2021/06/12 13:51:03;;;;;;;4.13;1.87;;;;;;;28.87;34.42;98028.03;8387442;28;20214;-65
2021/06/12 13:55:09;;;;;;;2.60;1.67;;;;;;;28.64;35.86;98024.41;8387340;28;20239;-65
2021/06/12 13:59:11;;;;;;;3.30;2.13;;;;;;;28.52;36.15;98025.88;8387156;28;20237;-65
2021/06/12 14:03:15;;;;;;;2.40;1.60;;;;;;;28.72;34.15;98030.66;8396434;28;20209;-65
2021/06/12 14:07:20;;;;;;;3.17;1.93;;;;;;;28.93;34.36;98024.63;8420050;28;20225;-65
2021/06/12 14:11:22;;;;;;;2.63;1.63;;;;;;;29.02;33.96;98019.00;8419911;28;20251;-65
2021/06/12 14:15:25;;;;;;;4.67;2.00;;;;;;;29.15;33.70;98023.72;8420225;28;20379;-65
2021/06/12 14:19:28;;;;;;;2.47;2.00;;;;;;;29.23;33.33;98018.28;8420161;28;20310;-65
2021/06/12 14:23:31;;;;;;;6.87;2.20;;;;;;;29.12;33.22;98020.56;8419768;28;20217;-65
2021/06/12 14:27:33;;;;;;;7.83;1.80;;;;;;;29.29;33.56;98021.22;8419802;28;20205;-65
2021/06/12 14:31:36;;;;;;;2.63;2.00;;;;;;;28.84;34.00;98032.72;8419648;28;20229;-65
2021/06/12 14:35:40;;;;;;;5.30;1.90;;;;;;;28.87;33.11;98022.69;8419314;28;20548;-65
2021/06/12 14:39:42;;;;;;;2.83;2.10;;;;;;;28.79;33.47;98028.94;8418666;28;20231;-65
2021/06/12 14:43:45;;;;;;;3.80;2.10;;;;;;;28.71;34.05;98032.53;8418778;28;20486;-65
2021/06/12 14:47:47;;;;;;;2.90;2.30;;;;;;;28.53;34.67;98024.84;8419315;28;20205;-65
2021/06/12 14:51:51;;;;;;;3.20;2.00;;;;;;;28.84;35.33;98022.06;8418784;28;20246;-65
2021/06/12 14:55:53;;;;;;;6.60;2.23;;;;;;;28.67;34.99;98028.53;8418189;28;20389;-64
2021/06/12 14:59:55;;;;;;;5.70;2.20;;;;;;;28.63;35.84;98025.41;8417895;28;20229;-64
2021/06/12 15:03:58;;;;;;;5.03;2.30;;;;;;;28.44;35.85;98021.41;8418117;28;20206;-64
2021/06/12 15:08:02;;;;;;;3.77;2.10;;;;;;;28.45;35.69;98020.41;8386879;28;20219;-64
2021/06/12 15:12:04;;;;;;;4.87;2.13;;;;;;;28.45;36.37;98024.91;8381540;28;20516;-65
2021/06/12 15:16:07;;;;;;;6.73;2.20;;;;;;;28.14;37.55;98033.81;8384154;28;20507;-64
2021/06/12 15:20:10;;;;;;;3.33;2.40;;;;;;;28.33;38.24;98047.63;8383957;28;20228;-64
2021/06/12 15:24:14;;;;;;;4.30;2.53;;;;;;;28.14;38.29;98028.50;8383690;28;20197;-64
2021/06/12 15:28:16;;;;;;;4.57;2.97;;;;;;;28.02;40.85;98046.69;8383448;28;20202;-64
2021/06/12 15:32:18;;;;;;;3.70;2.90;;;;;;;27.51;40.35;98038.34;8383414;28;20398;-64
2021/06/12 15:36:21;;;;;;;2.80;2.60;;;;;;;27.48;40.94;98041.34;8384248;28;20200;-64
2021/06/12 15:40:25;;;;;;;6.97;3.03;;;;;;;27.35;41.37;98044.56;8383298;28;20197;-65
2021/06/12 15:44:27;;;;;;;6.80;2.60;;;;;;;26.70;41.88;98051.69;8382759;28;20194;-65
2021/06/12 15:48:30;;;;;;;5.37;3.00;;;;;;;26.91;41.84;98047.69;8382930;28;20201;-65
2021/06/12 15:52:33;;;;;;;3.93;3.07;;;;;;;26.99;41.43;98055.63;8382691;28;20490;-65
2021/06/12 15:56:36;;;;;;;6.37;2.50;;;;;;;27.14;41.62;98053.09;8380136;28;20194;-65
2021/06/12 16:00:39;;;;;;;5.00;2.00;;;;;;;27.03;40.65;98066.75;8382272;28;20196;-65
2021/06/12 16:04:41;;;;;;;6.40;2.30;;;;;;;26.87;39.40;98076.41;8383638;28;20392;-65
2021/06/12 16:08:43;;;;;;;2.17;1.63;;;;;;;26.66;38.53;98086.75;8386766;28;20542;-65
2021/06/12 16:12:48;;;;;;;7.33;1.70;;;;;;;26.24;39.73;98087.72;8415057;28;20193;-65
2021/06/12 16:16:51;;;;;;;8.97;1.80;;;;;;;26.19;39.06;98096.16;8415898;28;20293;-64
2021/06/12 16:20:55;;;;;;;4.73;1.50;;;;;;;26.03;39.28;98096.97;8410928;28;20202;-65
2021/06/12 16:24:57;;;;;;;6.47;1.60;;;;;;;26.14;39.35;98106.41;8408104;28;20198;-64
2021/06/12 16:29:01;;;;;;;6.67;1.90;;;;;;;25.82;39.95;98109.84;8400352;28;20197;-64
2021/06/12 16:33:03;;;;;;;4.67;1.57;;;;;;;25.72;40.49;98123.19;8401780;28;20204;-64
2021/06/12 16:37:06;;;;;;;5.73;2.03;;;;;;;25.71;40.88;98124.22;8400755;28;20224;-64
2021/06/12 16:41:08;;;;;;;5.63;2.20;;;;;;;25.42;41.67;98119.25;8382866;28;20195;-64
2021/06/12 16:45:13;;;;;;;8.90;2.30;;;;;;;25.12;42.72;98129.34;8377778;28;20197;-63
2021/06/12 16:49:16;;;;;;;7.17;2.40;;;;;;;24.91;42.82;98138.50;8382162;28;20404;-63
2021/06/12 16:53:18;;;;;;;4.90;2.43;;;;;;;24.62;43.62;98152.00;8382164;28;20220;-63
2021/06/12 16:57:30;;;;;;;4.83;2.60;;;;;;;24.74;44.16;98157.91;8381921;28;20227;-63
2021/06/12 17:01:34;;;;;;;4.70;2.50;;;;;;;24.58;44.57;98162.06;8381802;28;20271;-63
2021/06/12 17:05:37;;;;;;;3.60;2.50;;;;;;;24.57;43.98;98155.09;8439948;28;20513;-63
2021/06/12 17:09:39;;;;;;;8.10;2.87;;;;;;;24.49;43.48;98172.72;8448798;28;20534;-63
2021/06/12 17:13:42;;;;;;;3.00;2.40;;;;;;;24.69;43.20;98168.09;8448265;28;20211;-63
2021/06/12 17:17:46;;;;;;;4.43;2.70;;;;;;;24.75;42.50;98171.00;8448386;28;20229;-63
2021/06/12 17:21:48;;;;;;;3.80;2.40;;;;;;;24.60;41.83;98169.88;8452669;28;20205;-63
2021/06/12 17:25:51;;;;;;;7.10;2.57;;;;;;;24.39;41.88;98170.16;8454775;28;20203;-63
2021/06/12 17:29:54;;;;;;;4.20;2.90;;;;;;;24.31;42.33;98183.28;8454761;28;20251;-63
2021/06/12 17:33:58;;;;;;;4.90;2.67;;;;;;;24.26;42.80;98188.22;8454596;28;20205;-63
2021/06/12 17:38:01;;;;;;;3.33;2.60;;;;;;;24.20;42.67;98194.91;8454398;28;20225;-63
2021/06/12 17:42:04;;;;;;;2.90;2.60;;;;;;;24.24;42.87;98195.44;8454705;28;20198;-63
2021/06/12 17:46:07;;;;;;;4.23;2.80;;;;;;;24.17;42.96;98197.84;8454188;28;20217;-63
2021/06/12 17:50:11;;;;;;;3.93;2.80;;;;;;;24.21;43.34;98201.88;8454356;28;20209;-63
2021/06/12 17:54:13;;;;;;;4.63;3.03;;;;;;;24.04;43.87;98202.66;8454286;28;20491;-63
2021/06/12 17:58:16;;;;;;;3.33;3.03;;;;;;;24.08;43.80;98204.84;8454033;28;20245;-63
2021/06/12 18:02:19;;;;;;;2.97;2.70;;;;;;;24.02;44.26;98209.91;8453937;28;20202;-63
2021/06/12 18:06:23;;;;;;;9.67;3.13;;;;;;;24.02;44.47;98204.63;8453746;28;20408;-63
2021/06/12 18:10:26;;;;;;;2.90;2.70;;;;;;;24.06;44.60;98213.94;8454086;28;20417;-63
2021/06/12 18:14:28;;;;;;;4.60;2.70;;;;;;;24.03;44.83;98212.41;8453524;28;20202;-63
2021/06/12 18:18:30;;;;;;;5.77;2.63;;;;;;;24.12;44.83;98218.63;8453147;28;20230;-63
2021/06/12 18:22:34;;;;;;;3.47;2.80;;;;;;;24.16;45.28;98212.91;8453481;28;20198;-63
2021/06/12 18:26:37;;;;;;;7.80;3.10;;;;;;;24.11;45.35;98216.97;8432782;28;20203;-63
2021/06/12 18:30:39;;;;;;;4.13;2.73;;;;;;;24.06;45.38;98219.22;8401126;28;20211;-64
2021/06/12 18:34:41;;;;;;;5.47;3.00;;;;;;;23.96;45.77;98222.75;8395206;28;20202;-64
2021/06/12 18:38:45;;;;;;;5.23;2.87;;;;;;;23.94;45.95;98216.78;8396076;28;20222;-63
2021/06/12 18:42:48;;;;;;;4.43;3.00;;;;;;;23.98;46.38;98228.72;8393631;28;20192;-63
2021/06/12 18:46:50;;;;;;;3.40;3.10;;;;;;;23.93;47.04;98225.69;8401663;28;20191;-63
2021/06/12 18:50:53;;;;;;;3.63;3.10;;;;;;;23.93;46.37;98228.34;8401551;28;20195;-63
2021/06/12 18:54:57;;;;;;;6.37;3.00;;;;;;;23.88;46.54;98233.22;8401228;28;20194;-63
2021/06/12 18:58:59;;;;;;;4.07;3.00;;;;;;;23.84;46.55;98239.78;8397364;28;20227;-63
2021/06/12 19:03:01;;;;;;;4.43;3.03;;;;;;;23.76;46.86;98239.63;8421872;28;20209;-63